METAR and TAF information
METAR FOR SPQT
ADDS - METARS form results

(1903 UTC 19 April 2018)
Data provider http://aviationweather.gov/adds/metars/
 
METAR text: SPQT 191900Z 28003KT 250V310 9999 -DZ BKN008 OVC080 25/24 Q1014 NOSIG RMK PP001
Conditions at: SPQT (IQUITOS/SECADA , PE) observed 1900 UTC 19 April 2018
Temperature: 25.0°C (77°F)
Dewpoint: 24.0°C (75°F) [RH = 94%]
Pressure (altimeter): 29.94 inches Hg (1014.0 mb)
Winds: from the W (280 degrees) at 3 MPH (3 knots; 1.6 m/s)
Visibility: 6 or more miles (10+ km)
Ceiling: 800 feet AGL
Clouds: broken clouds at 800 feet AGL
overcast cloud deck at 8000 feet AGL
Weather: -DZ  (light drizzle)

Forecast for: SPQT (IQUITOS/SECADA , PE)
Text: TAF SPQT 191700Z 1918/2018 32003KT 9999 SCT015 BKN100 TX27/1920Z TN24/2011Z
Forecast period: 1800 UTC 19 April 2018 to 1300 UTC 20 April 2018
Forecast type: FROM: standard forecast or significant change
Winds: from the NW (320 degrees) at 3 MPH (3 knots; 1.6 m/s)
Visibility: 6 or more miles (10+ km)
Ceiling: 10000 feet AGL
Clouds: scattered clouds at 1500 feet AGL
broken clouds at 10000 feet AGL
Weather: no significant weather forecast for this period
Forecast for: SPQT (IQUITOS/SECADA , PE)
Text: TAF SPQT 191700Z 1918/2018 32003KT 9999 SCT015 BKN100 TX27/1920Z TN24/2011Z
Forecast period: 1800 UTC 19 April 2018 to 1300 UTC 20 April 2018
Forecast type: FROM: standard forecast or significant change
Winds: from the NW (320 degrees) at 3 MPH (3 knots; 1.6 m/s)
Visibility: 6 or more miles (10+ km)
Ceiling: 10000 feet AGL
Clouds: scattered clouds at 1500 feet AGL
broken clouds at 10000 feet AGL
Weather: no significant weather forecast for this period
Forecast for: SPQT (IQUITOS/SECADA , PE)
Text: TAF SPQT 191700Z 1918/2018 32003KT 9999 SCT015 BKN100 TX27/1920Z TN24/2011Z
Forecast period: 1800 to 2200 UTC 19 April 2018
Forecast type: TEMPORARY: The following changes expected for less than half the time period
Visibility: 3 miles (5 km)
Ceiling: 10000 feet AGL
Clouds: scattered clouds at 1500 feet AGL
overcast cloud deck at 10000 feet AGL
Weather: -RA -DZ  (light rain, light drizzle)
Forecast for: SPQT (IQUITOS/SECADA , PE)
Text: TAF SPQT 191700Z 1918/2018 32003KT 9999 SCT015 BKN100 TX27/1920Z TN24/2011Z
Forecast period: 1800 to 2200 UTC 19 April 2018
Forecast type: TEMPORARY: The following changes expected for less than half the time period
Visibility: 3 miles (5 km)
Ceiling: 10000 feet AGL
Clouds: scattered clouds at 1500 feet AGL
overcast cloud deck at 10000 feet AGL
Weather: -RA -DZ  (light rain, light drizzle)
Forecast for: SPQT (IQUITOS/SECADA , PE)
Text: TAF SPQT 191700Z 1918/2018 32003KT 9999 SCT015 BKN100 TX27/1920Z TN24/2011Z
Forecast period: 0800 to 1200 UTC 20 April 2018
Forecast type: TEMPORARY: The following changes expected for less than half the time period
Winds: from the SSE (150 degrees) at 3 MPH (3 knots; 1.6 m/s)
Visibility: 3 miles (5 km)
Ceiling: 500 feet AGL
Clouds: broken clouds at 500 feet AGL
overcast cloud deck at 8000 feet AGL
Weather: -RA BR  (light rain, mist)
Forecast for: SPQT (IQUITOS/SECADA , PE)
Text: TAF SPQT 191700Z 1918/2018 32003KT 9999 SCT015 BKN100 TX27/1920Z TN24/2011Z
Forecast period: 0800 to 1200 UTC 20 April 2018
Forecast type: TEMPORARY: The following changes expected for less than half the time period
Winds: from the SSE (150 degrees) at 3 MPH (3 knots; 1.6 m/s)
Visibility: 3 miles (5 km)
Ceiling: 500 feet AGL
Clouds: broken clouds at 500 feet AGL
overcast cloud deck at 8000 feet AGL
Weather: -RA BR  (light rain, mist)
Forecast for: SPQT (IQUITOS/SECADA , PE)
Text: TAF SPQT 191700Z 1918/2018 32003KT 9999 SCT015 BKN100 TX27/1920Z TN24/2011Z
Forecast period: 1300 to 1800 UTC 20 April 2018
Forecast type: BECOMING: Conditions expected to become as follows by 1500 UTC 20 April 2018
Winds: from the NE (40 degrees) at 6 MPH (5 knots; 2.6 m/s)
Visibility: 6 or more miles (10+ km)
Ceiling: 10000 feet AGL
Clouds: scattered clouds at 1000 feet AGL
broken clouds at 10000 feet AGL
Weather: no significant weather forecast for this period
Forecast for: SPQT (IQUITOS/SECADA , PE)
Text: TAF SPQT 191700Z 1918/2018 32003KT 9999 SCT015 BKN100 TX27/1920Z TN24/2011Z
Forecast period: 1300 to 1800 UTC 20 April 2018
Forecast type: BECOMING: Conditions expected to become as follows by 1500 UTC 20 April 2018
Winds: from the NE (40 degrees) at 6 MPH (5 knots; 2.6 m/s)
Visibility: 6 or more miles (10+ km)
Ceiling: 10000 feet AGL
Clouds: scattered clouds at 1000 feet AGL
broken clouds at 10000 feet AGL
Weather: no significant weather forecast for this period

 Airport map

 Runway information
Runway 06 Runway length 8202 ft Runway width 148 ft
Runway elevation 306 ft Runway displaced threshold 0 ft Runway heading 57
Runway 24 Runway length 8202 ft Runway width 148 ft
Runway elevation 295 ft Runway displaced threshold 0 ft Runway heading 237

 Airport frequencies
Type APP Name IQUITOS AP Frequency 124.1 MHZ
Type TWR Name IQUITOS TW Frequency 118.5 MHZ

 Airport & nearby NAVAIDS
Type NDB Name Iquitos Frequency 335 KHZ
Type VOR-DME Name Iquitos Frequency 116500 KHZ




Powered by VAM | Theme by g1g@byt3



Copyright © 2016 - 2018 Olympic Airlines Virtual. All rights reserved.

Olympic Airlines, Olympic Airways etc. are registered trademarks of
their respective owners and are hereby used only for educational
purposes.
Legal disclaimer